sensor_id;sensor_type;location;lat;lon;timestamp;temperature;humidity
15997;DHT22;8103;51.340;12.326;2023-02-15T00:05:33;3.00;99.90
15997;DHT22;8103;51.340;12.326;2023-02-15T00:08:02;3.20;99.90
15997;DHT22;8103;51.340;12.326;2023-02-15T00:10:29;3.10;99.90
15997;DHT22;8103;51.340;12.326;2023-02-15T00:13:00;3.10;99.90
15997;DHT22;8103;51.340;12.326;2023-02-15T00:15:26;3.10;99.90
15997;DHT22;8103;51.340;12.326;2023-02-15T00:17:53;3.00;99.90
15997;DHT22;8103;51.340;12.326;2023-02-15T00:20:20;3.10;99.90
15997;DHT22;8103;51.340;12.326;2023-02-15T00:22:48;3.10;99.90
15997;DHT22;8103;51.340;12.326;2023-02-15T00:25:15;3.00;99.90
15997;DHT22;8103;51.340;12.326;2023-02-15T00:27:42;3.00;99.90
15997;DHT22;8103;51.340;12.326;2023-02-15T00:47:36;2.90;99.90
15997;DHT22;8103;51.340;12.326;2023-02-15T00:50:03;2.90;99.90
15997;DHT22;8103;51.340;12.326;2023-02-15T00:52:31;2.70;99.90
15997;DHT22;8103;51.340;12.326;2023-02-15T00:54:58;2.80;99.90
15997;DHT22;8103;51.340;12.326;2023-02-15T00:57:25;2.70;99.90
15997;DHT22;8103;51.340;12.326;2023-02-15T00:59:51;2.60;99.90
15997;DHT22;8103;51.340;12.326;2023-02-15T01:02:18;2.60;99.90
15997;DHT22;8103;51.340;12.326;2023-02-15T01:04:45;2.50;99.90
15997;DHT22;8103;51.340;12.326;2023-02-15T01:07:12;2.50;99.90
15997;DHT22;8103;51.340;12.326;2023-02-15T01:09:39;2.50;99.90
15997;DHT22;8103;51.340;12.326;2023-02-15T01:12:05;2.50;99.90
15997;DHT22;8103;51.340;12.326;2023-02-15T01:14:32;2.50;99.90
15997;DHT22;8103;51.340;12.326;2023-02-15T01:16:59;2.50;99.90
15997;DHT22;8103;51.340;12.326;2023-02-15T01:19:26;2.50;99.90
15997;DHT22;8103;51.340;12.326;2023-02-15T01:21:53;2.40;99.90
15997;DHT22;8103;51.340;12.326;2023-02-15T01:24:20;2.50;99.90
15997;DHT22;8103;51.340;12.326;2023-02-15T01:26:46;2.40;99.90
15997;DHT22;8103;51.340;12.326;2023-02-15T01:29:13;2.30;99.90
15997;DHT22;8103;51.340;12.326;2023-02-15T01:31:40;2.40;99.90
15997;DHT22;8103;51.340;12.326;2023-02-15T01:34:07;2.40;99.90
15997;DHT22;8103;51.340;12.326;2023-02-15T01:36:34;2.30;99.90
15997;DHT22;8103;51.340;12.326;2023-02-15T01:39:01;2.30;99.90
15997;DHT22;8103;51.340;12.326;2023-02-15T01:41:28;2.20;99.90
15997;DHT22;8103;51.340;12.326;2023-02-15T01:43:57;2.20;99.90
15997;DHT22;8103;51.340;12.326;2023-02-15T01:46:35;2.20;99.90
15997;DHT22;8103;51.340;12.326;2023-02-15T01:49:19;2.10;99.90
15997;DHT22;8103;51.340;12.326;2023-02-15T01:51:49;2.10;99.90
15997;DHT22;8103;51.340;12.326;2023-02-15T01:54:29;2.20;99.90
15997;DHT22;8103;51.340;12.326;2023-02-15T01:57:03;2.20;99.90
15997;DHT22;8103;51.340;12.326;2023-02-15T01:59:35;2.20;99.90
15997;DHT22;8103;51.340;12.326;2023-02-15T02:02:04;2.20;99.90
15997;DHT22;8103;51.340;12.326;2023-02-15T02:04:43;2.20;99.90
15997;DHT22;8103;51.340;12.326;2023-02-15T02:07:20;2.20;99.90
15997;DHT22;8103;51.340;12.326;2023-02-15T02:09:49;2.20;99.90
15997;DHT22;8103;51.340;12.326;2023-02-15T02:12:17;2.20;99.90
15997;DHT22;8103;51.340;12.326;2023-02-15T02:14:47;2.20;99.90
15997;DHT22;8103;51.340;12.326;2023-02-15T02:17:22;2.20;99.90
15997;DHT22;8103;51.340;12.326;2023-02-15T02:20:49;2.20;99.90
15997;DHT22;8103;51.340;12.326;2023-02-15T02:23:51;2.20;99.90
15997;DHT22;8103;51.340;12.326;2023-02-15T02:29:48;2.20;99.90
15997;DHT22;8103;51.340;12.326;2023-02-15T02:41:56;2.10;99.90
15997;DHT22;8103;51.340;12.326;2023-02-15T02:44:34;2.10;99.90
15997;DHT22;8103;51.340;12.326;2023-02-15T02:50:00;2.00;99.90
15997;DHT22;8103;51.340;12.326;2023-02-15T02:52:46;2.00;99.90
15997;DHT22;8103;51.340;12.326;2023-02-15T02:55:36;2.00;99.90
15997;DHT22;8103;51.340;12.326;2023-02-15T03:01:03;1.90;99.90
15997;DHT22;8103;51.340;12.326;2023-02-15T03:03:41;1.90;99.90
15997;DHT22;8103;51.340;12.326;2023-02-15T03:06:20;1.90;99.90
15997;DHT22;8103;51.340;12.326;2023-02-15T03:09:00;1.90;99.90
15997;DHT22;8103;51.340;12.326;2023-02-15T03:11:34;1.90;99.90
15997;DHT22;8103;51.340;12.326;2023-02-15T03:14:00;1.90;99.90
15997;DHT22;8103;51.340;12.326;2023-02-15T03:16:27;1.90;99.90
15997;DHT22;8103;51.340;12.326;2023-02-15T03:21:44;1.90;99.90
15997;DHT22;8103;51.340;12.326;2023-02-15T03:24:34;1.90;99.90
15997;DHT22;8103;51.340;12.326;2023-02-15T03:27:10;1.80;99.90
15997;DHT22;8103;51.340;12.326;2023-02-15T03:29:46;1.80;99.90
15997;DHT22;8103;51.340;12.326;2023-02-15T03:32:17;1.80;99.90
15997;DHT22;8103;51.340;12.326;2023-02-15T03:34:45;1.70;99.90
15997;DHT22;8103;51.340;12.326;2023-02-15T03:37:32;1.70;99.90
15997;DHT22;8103;51.340;12.326;2023-02-15T03:40:16;1.60;99.90
15997;DHT22;8103;51.340;12.326;2023-02-15T03:43:21;1.60;99.90
15997;DHT22;8103;51.340;12.326;2023-02-15T03:46:11;1.60;99.90
15997;DHT22;8103;51.340;12.326;2023-02-15T03:48:49;1.60;99.90
15997;DHT22;8103;51.340;12.326;2023-02-15T03:54:08;-1.80;99.90
15997;DHT22;8103;51.340;12.326;2023-02-15T03:57:09;1.60;99.90
15997;DHT22;8103;51.340;12.326;2023-02-15T03:59:58;1.60;99.90
15997;DHT22;8103;51.340;12.326;2023-02-15T04:02:56;1.60;99.90
15997;DHT22;8103;51.340;12.326;2023-02-15T04:05:33;1.70;99.90
15997;DHT22;8103;51.340;12.326;2023-02-15T04:08:01;1.60;99.90
15997;DHT22;8103;51.340;12.326;2023-02-15T04:10:28;1.60;99.90
15997;DHT22;8103;51.340;12.326;2023-02-15T04:13:13;1.60;99.90
15997;DHT22;8103;51.340;12.326;2023-02-15T04:15:40;1.60;99.90
15997;DHT22;8103;51.340;12.326;2023-02-15T04:18:26;1.60;99.90
15997;DHT22;8103;51.340;12.326;2023-02-15T04:21:11;1.60;99.90
15997;DHT22;8103;51.340;12.326;2023-02-15T04:23:57;1.60;99.90
15997;DHT22;8103;51.340;12.326;2023-02-15T04:26:42;1.50;99.90
15997;DHT22;8103;51.340;12.326;2023-02-15T04:29:09;1.50;99.90
15997;DHT22;8103;51.340;12.326;2023-02-15T04:31:36;1.50;99.90
15997;DHT22;8103;51.340;12.326;2023-02-15T04:34:03;1.40;99.90
15997;DHT22;8103;51.340;12.326;2023-02-15T04:36:30;1.40;99.90
15997;DHT22;8103;51.340;12.326;2023-02-15T04:38:56;1.30;99.90
15997;DHT22;8103;51.340;12.326;2023-02-15T04:41:23;1.30;99.90
15997;DHT22;8103;51.340;12.326;2023-02-15T04:43:50;1.30;99.90
15997;DHT22;8103;51.340;12.326;2023-02-15T04:46:17;1.30;99.90
15997;DHT22;8103;51.340;12.326;2023-02-15T04:48:43;1.20;99.90
15997;DHT22;8103;51.340;12.326;2023-02-15T04:51:10;1.10;99.90
15997;DHT22;8103;51.340;12.326;2023-02-15T04:53:37;1.10;99.90
15997;DHT22;8103;51.340;12.326;2023-02-15T04:56:04;1.10;99.90
15997;DHT22;8103;51.340;12.326;2023-02-15T04:58:31;1.10;99.90
15997;DHT22;8103;51.340;12.326;2023-02-15T05:00:58;1.10;99.90
15997;DHT22;8103;51.340;12.326;2023-02-15T05:03:25;0.80;99.90
15997;DHT22;8103;51.340;12.326;2023-02-15T05:05:52;1.10;99.90
15997;DHT22;8103;51.340;12.326;2023-02-15T05:08:18;1.10;99.90
15997;DHT22;8103;51.340;12.326;2023-02-15T05:10:47;1.10;99.90
15997;DHT22;8103;51.340;12.326;2023-02-15T05:13:15;1.10;99.90
15997;DHT22;8103;51.340;12.326;2023-02-15T05:15:47;1.10;99.90
15997;DHT22;8103;51.340;12.326;2023-02-15T05:18:17;1.10;99.90
15997;DHT22;8103;51.340;12.326;2023-02-15T05:20:46;1.20;99.90
15997;DHT22;8103;51.340;12.326;2023-02-15T05:23:14;1.20;99.90
15997;DHT22;8103;51.340;12.326;2023-02-15T05:25:46;1.20;99.90
15997;DHT22;8103;51.340;12.326;2023-02-15T05:28:37;1.20;99.90
15997;DHT22;8103;51.340;12.326;2023-02-15T05:31:12;1.10;99.90
15997;DHT22;8103;51.340;12.326;2023-02-15T05:33:40;1.10;99.90
15997;DHT22;8103;51.340;12.326;2023-02-15T05:36:08;1.10;99.90
15997;DHT22;8103;51.340;12.326;2023-02-15T05:38:37;1.10;99.90
15997;DHT22;8103;51.340;12.326;2023-02-15T05:41:05;1.10;99.90
15997;DHT22;8103;51.340;12.326;2023-02-15T05:43:33;1.10;99.90
15997;DHT22;8103;51.340;12.326;2023-02-15T05:46:00;1.10;99.90
15997;DHT22;8103;51.340;12.326;2023-02-15T05:48:28;1.10;99.90
15997;DHT22;8103;51.340;12.326;2023-02-15T05:51:00;1.10;99.90
15997;DHT22;8103;51.340;12.326;2023-02-15T05:53:30;1.10;99.90
15997;DHT22;8103;51.340;12.326;2023-02-15T05:55:58;1.10;99.90
15997;DHT22;8103;51.340;12.326;2023-02-15T05:58:28;1.10;99.90
15997;DHT22;8103;51.340;12.326;2023-02-15T06:01:07;1.10;99.90
15997;DHT22;8103;51.340;12.326;2023-02-15T06:03:38;1.10;99.90
15997;DHT22;8103;51.340;12.326;2023-02-15T06:06:06;1.10;99.90
15997;DHT22;8103;51.340;12.326;2023-02-15T06:08:34;1.10;99.90
15997;DHT22;8103;51.340;12.326;2023-02-15T06:11:02;1.10;99.90
15997;DHT22;8103;51.340;12.326;2023-02-15T06:13:29;1.10;99.90
15997;DHT22;8103;51.340;12.326;2023-02-15T06:15:56;1.00;99.90
15997;DHT22;8103;51.340;12.326;2023-02-15T06:18:23;1.00;99.90
15997;DHT22;8103;51.340;12.326;2023-02-15T06:20:50;1.00;99.90
15997;DHT22;8103;51.340;12.326;2023-02-15T06:23:17;0.90;99.90
15997;DHT22;8103;51.340;12.326;2023-02-15T06:25:45;0.90;99.90
15997;DHT22;8103;51.340;12.326;2023-02-15T06:30:40;1.00;99.90
15997;DHT22;8103;51.340;12.326;2023-02-15T06:33:06;1.00;99.90
15997;DHT22;8103;51.340;12.326;2023-02-15T06:35:33;1.00;99.90
15997;DHT22;8103;51.340;12.326;2023-02-15T06:38:00;1.00;99.90
15997;DHT22;8103;51.340;12.326;2023-02-15T06:40:27;0.90;99.90
15997;DHT22;8103;51.340;12.326;2023-02-15T06:42:54;1.00;99.90
15997;DHT22;8103;51.340;12.326;2023-02-15T06:45:20;0.90;99.90
15997;DHT22;8103;51.340;12.326;2023-02-15T06:47:47;1.00;99.90
15997;DHT22;8103;51.340;12.326;2023-02-15T06:50:14;1.00;99.90
15997;DHT22;8103;51.340;12.326;2023-02-15T06:52:41;-0.80;99.90
15997;DHT22;8103;51.340;12.326;2023-02-15T06:55:07;1.00;99.90
15997;DHT22;8103;51.340;12.326;2023-02-15T06:57:34;1.00;99.90
15997;DHT22;8103;51.340;12.326;2023-02-15T07:00:02;1.00;99.90
15997;DHT22;8103;51.340;12.326;2023-02-15T07:02:31;1.00;99.90
15997;DHT22;8103;51.340;12.326;2023-02-15T07:04:58;1.00;99.90
15997;DHT22;8103;51.340;12.326;2023-02-15T07:07:25;1.00;99.90
15997;DHT22;8103;51.340;12.326;2023-02-15T07:09:51;1.00;99.90
15997;DHT22;8103;51.340;12.326;2023-02-15T07:12:18;1.00;99.90
15997;DHT22;8103;51.340;12.326;2023-02-15T07:15:03;1.00;99.90
15997;DHT22;8103;51.340;12.326;2023-02-15T07:17:32;1.00;99.90
15997;DHT22;8103;51.340;12.326;2023-02-15T07:20:27;1.00;99.90
15997;DHT22;8103;51.340;12.326;2023-02-15T07:22:53;1.10;99.90
15997;DHT22;8103;51.340;12.326;2023-02-15T07:25:19;1.00;99.90
15997;DHT22;8103;51.340;12.326;2023-02-15T07:27:46;1.20;99.90
15997;DHT22;8103;51.340;12.326;2023-02-15T07:30:16;1.10;99.90
15997;DHT22;8103;51.340;12.326;2023-02-15T07:32:44;1.10;99.90
15997;DHT22;8103;51.340;12.326;2023-02-15T07:35:32;1.10;99.90
15997;DHT22;8103;51.340;12.326;2023-02-15T07:37:59;1.10;99.90
15997;DHT22;8103;51.340;12.326;2023-02-15T07:40:27;1.10;99.90
15997;DHT22;8103;51.340;12.326;2023-02-15T07:42:57;1.20;99.90
15997;DHT22;8103;51.340;12.326;2023-02-15T07:45:25;1.30;99.90
15997;DHT22;8103;51.340;12.326;2023-02-15T07:47:52;1.40;99.90
15997;DHT22;8103;51.340;12.326;2023-02-15T07:50:19;1.50;99.90
15997;DHT22;8103;51.340;12.326;2023-02-15T07:52:46;1.50;99.90
15997;DHT22;8103;51.340;12.326;2023-02-15T07:55:13;1.60;99.90
15997;DHT22;8103;51.340;12.326;2023-02-15T07:57:44;1.60;99.90
15997;DHT22;8103;51.340;12.326;2023-02-15T08:00:13;1.70;99.90
15997;DHT22;8103;51.340;12.326;2023-02-15T08:02:47;1.70;99.90
15997;DHT22;8103;51.340;12.326;2023-02-15T08:05:18;1.80;99.90
15997;DHT22;8103;51.340;12.326;2023-02-15T08:07:45;1.90;99.90
15997;DHT22;8103;51.340;12.326;2023-02-15T08:10:12;2.00;99.90
15997;DHT22;8103;51.340;12.326;2023-02-15T08:12:59;2.10;99.90
15997;DHT22;8103;51.340;12.326;2023-02-15T08:15:25;2.10;99.90
15997;DHT22;8103;51.340;12.326;2023-02-15T08:17:52;2.10;99.90
15997;DHT22;8103;51.340;12.326;2023-02-15T08:20:22;2.10;99.90
15997;DHT22;8103;51.340;12.326;2023-02-15T08:22:49;2.20;99.90
15997;DHT22;8103;51.340;12.326;2023-02-15T08:25:17;2.20;99.90
15997;DHT22;8103;51.340;12.326;2023-02-15T08:27:43;2.30;99.90
15997;DHT22;8103;51.340;12.326;2023-02-15T08:30:11;2.50;99.90
15997;DHT22;8103;51.340;12.326;2023-02-15T08:32:40;2.70;99.90
15997;DHT22;8103;51.340;12.326;2023-02-15T08:35:08;2.80;99.90
15997;DHT22;8103;51.340;12.326;2023-02-15T08:37:34;2.90;99.90
15997;DHT22;8103;51.340;12.326;2023-02-15T08:40:01;2.90;99.90
15997;DHT22;8103;51.340;12.326;2023-02-15T08:42:29;3.00;99.90
15997;DHT22;8103;51.340;12.326;2023-02-15T08:44:57;3.00;99.90
15997;DHT22;8103;51.340;12.326;2023-02-15T08:47:24;3.00;99.90
15997;DHT22;8103;51.340;12.326;2023-02-15T08:49:51;3.00;99.90
15997;DHT22;8103;51.340;12.326;2023-02-15T08:52:17;3.00;99.90
15997;DHT22;8103;51.340;12.326;2023-02-15T08:54:47;3.10;99.90
15997;DHT22;8103;51.340;12.326;2023-02-15T08:57:14;3.10;99.90
15997;DHT22;8103;51.340;12.326;2023-02-15T08:59:41;3.20;99.90
15997;DHT22;8103;51.340;12.326;2023-02-15T09:02:10;3.20;99.90
15997;DHT22;8103;51.340;12.326;2023-02-15T09:04:37;3.30;99.90
15997;DHT22;8103;51.340;12.326;2023-02-15T09:11:15;3.60;99.90
15997;DHT22;8103;51.340;12.326;2023-02-15T09:13:52;3.90;99.90
15997;DHT22;8103;51.340;12.326;2023-02-15T09:16:26;4.10;99.90
15997;DHT22;8103;51.340;12.326;2023-02-15T09:18:55;4.50;99.90
15997;DHT22;8103;51.340;12.326;2023-02-15T09:21:28;5.70;99.90
15997;DHT22;8103;51.340;12.326;2023-02-15T09:26:31;8.50;99.90
15997;DHT22;8103;51.340;12.326;2023-02-15T09:29:01;9.70;99.90
15997;DHT22;8103;51.340;12.326;2023-02-15T09:31:32;10.80;96.40
15997;DHT22;8103;51.340;12.326;2023-02-15T09:34:00;11.60;92.30
15997;DHT22;8103;51.340;12.326;2023-02-15T09:36:37;12.40;88.80
15997;DHT22;8103;51.340;12.326;2023-02-15T09:39:11;12.90;82.50
15997;DHT22;8103;51.340;12.326;2023-02-15T09:48:03;14.70;68.60
15997;DHT22;8103;51.340;12.326;2023-02-15T09:51:17;15.10;73.70
15997;DHT22;8103;51.340;12.326;2023-02-15T09:54:14;15.80;75.40
15997;DHT22;8103;51.340;12.326;2023-02-15T09:56:55;16.50;60.40
15997;DHT22;8103;51.340;12.326;2023-02-15T09:59:36;17.00;57.50
15997;DHT22;8103;51.340;12.326;2023-02-15T10:02:41;17.50;55.50
15997;DHT22;8103;51.340;12.326;2023-02-15T10:05:45;17.90;54.50
15997;DHT22;8103;51.340;12.326;2023-02-15T10:12:01;19.90;47.90
15997;DHT22;8103;51.340;12.326;2023-02-15T10:20:51;20.90;44.40
15997;DHT22;8103;51.340;12.326;2023-02-15T10:29:30;21.40;42.40
15997;DHT22;8103;51.340;12.326;2023-02-15T10:32:31;21.40;41.90
15997;DHT22;8103;51.340;12.326;2023-02-15T10:35:15;21.70;41.60
15997;DHT22;8103;51.340;12.326;2023-02-15T10:38:06;22.20;41.20
15997;DHT22;8103;51.340;12.326;2023-02-15T10:41:06;22.70;39.60
15997;DHT22;8103;51.340;12.326;2023-02-15T10:52:23;24.10;36.50
15997;DHT22;8103;51.340;12.326;2023-02-15T10:55:18;24.80;36.70
15997;DHT22;8103;51.340;12.326;2023-02-15T11:01:37;26.00;34.30
15997;DHT22;8103;51.340;12.326;2023-02-15T11:06:48;27.40;32.10
15997;DHT22;8103;51.340;12.326;2023-02-15T11:09:22;27.80;30.90
15997;DHT22;8103;51.340;12.326;2023-02-15T11:11:55;28.50;54.30
15997;DHT22;8103;51.340;12.326;2023-02-15T11:15:01;29.00;29.70
15997;DHT22;8103;51.340;12.326;2023-02-15T11:17:47;29.10;29.00
15997;DHT22;8103;51.340;12.326;2023-02-15T11:20:42;28.80;29.10
15997;DHT22;8103;51.340;12.326;2023-02-15T11:23:16;28.90;29.30
15997;DHT22;8103;51.340;12.326;2023-02-15T11:25:48;28.20;29.50
15997;DHT22;8103;51.340;12.326;2023-02-15T11:28:40;28.20;29.40
15997;DHT22;8103;51.340;12.326;2023-02-15T11:31:21;28.20;29.70
15997;DHT22;8103;51.340;12.326;2023-02-15T11:34:04;27.80;30.00
15997;DHT22;8103;51.340;12.326;2023-02-15T11:36:43;28.30;29.90
15997;DHT22;8103;51.340;12.326;2023-02-15T11:39:16;29.30;29.60
15997;DHT22;8103;51.340;12.326;2023-02-15T11:41:47;29.60;28.50
15997;DHT22;8103;51.340;12.326;2023-02-15T11:44:32;29.60;28.30
15997;DHT22;8103;51.340;12.326;2023-02-15T11:47:09;28.80;28.60
15997;DHT22;8103;51.340;12.326;2023-02-15T11:49:38;26.00;30.50
15997;DHT22;8103;51.340;12.326;2023-02-15T11:52:07;23.00;34.30
15997;DHT22;8103;51.340;12.326;2023-02-15T11:54:47;20.10;40.50
15997;DHT22;8103;51.340;12.326;2023-02-15T11:57:23;17.20;46.60
15997;DHT22;8103;51.340;12.326;2023-02-15T12:00:24;15.50;50.70
15997;DHT22;8103;51.340;12.326;2023-02-15T12:02:58;14.10;55.80
15997;DHT22;8103;51.340;12.326;2023-02-15T12:05:25;13.20;58.40
15997;DHT22;8103;51.340;12.326;2023-02-15T12:07:56;12.40;61.40
15997;DHT22;8103;51.340;12.326;2023-02-15T12:10:42;12.30;62.20
15997;DHT22;8103;51.340;12.326;2023-02-15T12:13:19;12.00;66.00
15997;DHT22;8103;51.340;12.326;2023-02-15T12:15:55;11.60;68.00
15997;DHT22;8103;51.340;12.326;2023-02-15T12:18:37;11.40;69.80
15997;DHT22;8103;51.340;12.326;2023-02-15T12:21:09;11.30;70.00
15997;DHT22;8103;51.340;12.326;2023-02-15T12:23:46;11.20;70.80
15997;DHT22;8103;51.340;12.326;2023-02-15T12:26:30;11.20;71.10
15997;DHT22;8103;51.340;12.326;2023-02-15T12:29:00;11.30;71.50
15997;DHT22;8103;51.340;12.326;2023-02-15T12:31:43;11.50;74.70
15997;DHT22;8103;51.340;12.326;2023-02-15T12:34:30;12.00;75.10
15997;DHT22;8103;51.340;12.326;2023-02-15T12:37:10;13.50;71.50
15997;DHT22;8103;51.340;12.326;2023-02-15T12:39:55;16.70;63.80
15997;DHT22;8103;51.340;12.326;2023-02-15T12:42:25;20.50;53.80
15997;DHT22;8103;51.340;12.326;2023-02-15T12:45:03;23.70;44.40
15997;DHT22;8103;51.340;12.326;2023-02-15T12:47:47;26.00;39.00
15997;DHT22;8103;51.340;12.326;2023-02-15T12:56:05;31.70;74.50
15997;DHT22;8103;51.340;12.326;2023-02-15T12:58:38;32.50;26.80
15997;DHT22;8103;51.340;12.326;2023-02-15T13:01:10;32.80;26.00
15997;DHT22;8103;51.340;12.326;2023-02-15T13:04:01;32.90;26.20
15997;DHT22;8103;51.340;12.326;2023-02-15T13:06:33;33.00;25.40
15997;DHT22;8103;51.340;12.326;2023-02-15T13:12:23;32.80;25.30
15997;DHT22;8103;51.340;12.326;2023-02-15T13:14:54;33.10;24.20
15997;DHT22;8103;51.340;12.326;2023-02-15T13:17:28;32.90;24.70
15997;DHT22;8103;51.340;12.326;2023-02-15T13:20:02;32.60;24.20
15997;DHT22;8103;51.340;12.326;2023-02-15T13:22:45;32.30;23.90
15997;DHT22;8103;51.340;12.326;2023-02-15T13:25:20;31.60;24.30
15997;DHT22;8103;51.340;12.326;2023-02-15T13:27:53;31.10;25.00
15997;DHT22;8103;51.340;12.326;2023-02-15T13:30:30;31.50;25.40
15997;DHT22;8103;51.340;12.326;2023-02-15T13:33:08;31.80;24.60
15997;DHT22;8103;51.340;12.326;2023-02-15T13:35:50;31.50;24.90
15997;DHT22;8103;51.340;12.326;2023-02-15T13:38:51;31.10;25.00
15997;DHT22;8103;51.340;12.326;2023-02-15T13:48:46;31.20;25.30
15997;DHT22;8103;51.340;12.326;2023-02-15T13:54:45;31.10;25.60
15997;DHT22;8103;51.340;12.326;2023-02-15T14:00:47;30.90;25.30
15997;DHT22;8103;51.340;12.326;2023-02-15T14:03:52;30.70;25.60
15997;DHT22;8103;51.340;12.326;2023-02-15T14:06:45;30.60;25.80
15997;DHT22;8103;51.340;12.326;2023-02-15T14:09:41;30.70;25.60
15997;DHT22;8103;51.340;12.326;2023-02-15T14:12:40;30.90;25.70
15997;DHT22;8103;51.340;12.326;2023-02-15T14:27:27;31.60;24.80
15997;DHT22;8103;51.340;12.326;2023-02-15T14:30:18;31.70;24.40
15997;DHT22;8103;51.340;12.326;2023-02-15T14:32:57;31.60;24.30
15997;DHT22;8103;51.340;12.326;2023-02-15T14:35:30;31.40;24.40
15997;DHT22;8103;51.340;12.326;2023-02-15T14:38:13;31.50;24.80
15997;DHT22;8103;51.340;12.326;2023-02-15T14:40:56;31.50;24.50
15997;DHT22;8103;51.340;12.326;2023-02-15T14:43:37;31.50;24.60
15997;DHT22;8103;51.340;12.326;2023-02-15T14:49:21;31.10;24.10
15997;DHT22;8103;51.340;12.326;2023-02-15T14:51:54;30.60;24.40
15997;DHT22;8103;51.340;12.326;2023-02-15T14:59:45;28.30;25.80
15997;DHT22;8103;51.340;12.326;2023-02-15T15:02:45;27.70;26.50
15997;DHT22;8103;51.340;12.326;2023-02-15T15:05:32;27.30;26.90
15997;DHT22;8103;51.340;12.326;2023-02-15T15:08:03;26.50;27.20
15997;DHT22;8103;51.340;12.326;2023-02-15T15:10:39;24.80;28.50
15997;DHT22;8103;51.340;12.326;2023-02-15T15:13:35;22.90;30.70
15997;DHT22;8103;51.340;12.326;2023-02-15T15:28:52;16.00;45.10
15997;DHT22;8103;51.340;12.326;2023-02-15T15:31:41;15.40;47.30
15997;DHT22;8103;51.340;12.326;2023-02-15T15:34:41;14.90;48.70
15997;DHT22;8103;51.340;12.326;2023-02-15T15:41:30;14.10;52.10
15997;DHT22;8103;51.340;12.326;2023-02-15T15:47:32;13.50;55.10
15997;DHT22;8103;51.340;12.326;2023-02-15T15:50:17;13.30;55.10
15997;DHT22;8103;51.340;12.326;2023-02-15T15:52:53;13.20;55.50
15997;DHT22;8103;51.340;12.326;2023-02-15T15:55:23;13.00;57.10
15997;DHT22;8103;51.340;12.326;2023-02-15T15:58:15;12.80;58.70
15997;DHT22;8103;51.340;12.326;2023-02-15T16:00:54;12.60;58.30
15997;DHT22;8103;51.340;12.326;2023-02-15T16:03:28;12.50;58.30
15997;DHT22;8103;51.340;12.326;2023-02-15T16:05:56;12.40;58.50
15997;DHT22;8103;51.340;12.326;2023-02-15T16:08:34;12.30;59.30
15997;DHT22;8103;51.340;12.326;2023-02-15T16:11:24;12.10;61.20
15997;DHT22;8103;51.340;12.326;2023-02-15T16:13:53;11.90;62.20
15997;DHT22;8103;51.340;12.326;2023-02-15T16:16:23;11.80;62.70
15997;DHT22;8103;51.340;12.326;2023-02-15T16:18:57;11.60;63.40
15997;DHT22;8103;51.340;12.326;2023-02-15T16:21:31;11.50;63.70
15997;DHT22;8103;51.340;12.326;2023-02-15T16:29:57;11.10;67.50
15997;DHT22;8103;51.340;12.326;2023-02-15T16:32:26;11.00;68.00
15997;DHT22;8103;51.340;12.326;2023-02-15T16:34:59;10.80;68.50
15997;DHT22;8103;51.340;12.326;2023-02-15T16:37:33;10.70;69.50
15997;DHT22;8103;51.340;12.326;2023-02-15T16:40:00;10.50;70.90
15997;DHT22;8103;51.340;12.326;2023-02-15T16:42:27;10.40;71.60
15997;DHT22;8103;51.340;12.326;2023-02-15T16:49:05;10.30;72.00
15997;DHT22;8103;51.340;12.326;2023-02-15T16:51:41;10.20;72.80
15997;DHT22;8103;51.340;12.326;2023-02-15T16:54:19;10.10;72.60
15997;DHT22;8103;51.340;12.326;2023-02-15T16:56:48;10.00;74.80
15997;DHT22;8103;51.340;12.326;2023-02-15T16:59:32;9.90;76.00
15997;DHT22;8103;51.340;12.326;2023-02-15T17:02:11;9.70;77.70
15997;DHT22;8103;51.340;12.326;2023-02-15T17:05:19;9.60;78.80
15997;DHT22;8103;51.340;12.326;2023-02-15T17:08:10;9.50;79.80
15997;DHT22;8103;51.340;12.326;2023-02-15T17:16:32;9.40;81.40
15997;DHT22;8103;51.340;12.326;2023-02-15T17:19:08;9.40;82.20
15997;DHT22;8103;51.340;12.326;2023-02-15T17:21:42;9.40;83.00
15997;DHT22;8103;51.340;12.326;2023-02-15T17:28:24;9.10;85.60
15997;DHT22;8103;51.340;12.326;2023-02-15T17:30:54;9.00;85.90
15997;DHT22;8103;51.340;12.326;2023-02-15T17:36:28;8.90;86.10
15997;DHT22;8103;51.340;12.326;2023-02-15T17:41:24;8.80;88.30
15997;DHT22;8103;51.340;12.326;2023-02-15T17:43:51;8.80;89.40
15997;DHT22;8103;51.340;12.326;2023-02-15T17:46:18;8.70;90.00
15997;DHT22;8103;51.340;12.326;2023-02-15T17:48:51;8.60;90.80
15997;DHT22;8103;51.340;12.326;2023-02-15T17:51:20;8.60;91.70
15997;DHT22;8103;51.340;12.326;2023-02-15T17:53:48;8.60;94.80
15997;DHT22;8103;51.340;12.326;2023-02-15T17:56:35;8.60;99.90
15997;DHT22;8103;51.340;12.326;2023-02-15T18:01:40;8.50;99.10
15997;DHT22;8103;51.340;12.326;2023-02-15T18:04:32;8.50;96.20
15997;DHT22;8103;51.340;12.326;2023-02-15T18:07:20;8.50;96.90
15997;DHT22;8103;51.340;12.326;2023-02-15T18:10:17;8.40;99.90
15997;DHT22;8103;51.340;12.326;2023-02-15T18:13:03;8.60;99.90
15997;DHT22;8103;51.340;12.326;2023-02-15T18:15:30;8.70;99.90
15997;DHT22;8103;51.340;12.326;2023-02-15T18:17:58;8.50;99.90
15997;DHT22;8103;51.340;12.326;2023-02-15T18:20:30;8.60;99.90
15997;DHT22;8103;51.340;12.326;2023-02-15T18:23:00;8.30;97.10
15997;DHT22;8103;51.340;12.326;2023-02-15T18:25:28;8.30;97.10
15997;DHT22;8103;51.340;12.326;2023-02-15T18:27:55;8.30;97.30
15997;DHT22;8103;51.340;12.326;2023-02-15T18:30:23;8.30;97.60
15997;DHT22;8103;51.340;12.326;2023-02-15T18:32:53;8.20;98.00
15997;DHT22;8103;51.340;12.326;2023-02-15T18:35:25;8.20;97.70
15997;DHT22;8103;51.340;12.326;2023-02-15T18:37:54;8.20;97.90
15997;DHT22;8103;51.340;12.326;2023-02-15T18:40:25;8.20;98.50
15997;DHT22;8103;51.340;12.326;2023-02-15T18:42:53;8.20;99.00
15997;DHT22;8103;51.340;12.326;2023-02-15T18:45:24;8.10;99.60
15997;DHT22;8103;51.340;12.326;2023-02-15T18:47:54;8.10;99.90
15997;DHT22;8103;51.340;12.326;2023-02-15T18:50:22;8.00;99.90
15997;DHT22;8103;51.340;12.326;2023-02-15T18:52:52;7.90;99.90
15997;DHT22;8103;51.340;12.326;2023-02-15T18:55:20;7.90;99.90
15997;DHT22;8103;51.340;12.326;2023-02-15T18:57:51;7.80;99.90
15997;DHT22;8103;51.340;12.326;2023-02-15T19:00:22;7.80;99.90
15997;DHT22;8103;51.340;12.326;2023-02-15T19:02:51;7.70;99.90
15997;DHT22;8103;51.340;12.326;2023-02-15T19:05:19;7.70;99.90
15997;DHT22;8103;51.340;12.326;2023-02-15T19:07:48;7.70;99.90
15997;DHT22;8103;51.340;12.326;2023-02-15T19:10:21;7.70;99.90
15997;DHT22;8103;51.340;12.326;2023-02-15T19:12:50;7.60;99.90
15997;DHT22;8103;51.340;12.326;2023-02-15T19:15:21;7.60;99.90
15997;DHT22;8103;51.340;12.326;2023-02-15T19:21:50;7.60;99.90
15997;DHT22;8103;51.340;12.326;2023-02-15T19:24:21;7.60;99.90
15997;DHT22;8103;51.340;12.326;2023-02-15T19:26:51;7.60;99.90
15997;DHT22;8103;51.340;12.326;2023-02-15T19:29:24;7.60;99.90
15997;DHT22;8103;51.340;12.326;2023-02-15T19:31:52;7.50;99.90
15997;DHT22;8103;51.340;12.326;2023-02-15T19:34:19;7.50;99.90